sensor_id;sensor_type;location;lat;lon;timestamp;P1;durP1;ratioP1;P2;durP2;ratioP2
10839;SDS011;5473;42.706;23.328;2022-11-15T00:00:22;0.60;;;0.60;;
10839;SDS011;5473;42.706;23.328;2022-11-15T00:02:49;0.50;;;0.50;;
10839;SDS011;5473;42.706;23.328;2022-11-15T00:05:18;0.60;;;0.60;;
10839;SDS011;5473;42.706;23.328;2022-11-15T00:07:45;0.60;;;0.60;;
10839;SDS011;5473;42.706;23.328;2022-11-15T00:10:12;0.60;;;0.60;;
10839;SDS011;5473;42.706;23.328;2022-11-15T00:12:38;0.60;;;0.60;;
10839;SDS011;5473;42.706;23.328;2022-11-15T00:15:06;0.50;;;0.50;;
10839;SDS011;5473;42.706;23.328;2022-11-15T00:17:35;0.60;;;0.60;;
10839;SDS011;5473;42.706;23.328;2022-11-15T00:20:01;0.50;;;0.50;;
10839;SDS011;5473;42.706;23.328;2022-11-15T00:22:31;0.50;;;0.50;;
10839;SDS011;5473;42.706;23.328;2022-11-15T00:24:58;0.60;;;0.60;;
10839;SDS011;5473;42.706;23.328;2022-11-15T00:27:25;0.60;;;0.60;;
10839;SDS011;5473;42.706;23.328;2022-11-15T00:29:52;0.50;;;0.50;;
10839;SDS011;5473;42.706;23.328;2022-11-15T00:32:19;0.60;;;0.60;;
10839;SDS011;5473;42.706;23.328;2022-11-15T00:34:47;0.60;;;0.60;;
10839;SDS011;5473;42.706;23.328;2022-11-15T00:37:14;0.60;;;0.60;;
10839;SDS011;5473;42.706;23.328;2022-11-15T00:39:40;0.60;;;0.60;;
10839;SDS011;5473;42.706;23.328;2022-11-15T00:42:07;0.60;;;0.60;;
10839;SDS011;5473;42.706;23.328;2022-11-15T00:44:34;0.60;;;0.60;;
10839;SDS011;5473;42.706;23.328;2022-11-15T00:47:01;0.50;;;0.50;;
10839;SDS011;5473;42.706;23.328;2022-11-15T00:49:28;0.50;;;0.50;;
10839;SDS011;5473;42.706;23.328;2022-11-15T00:51:56;0.60;;;0.60;;
10839;SDS011;5473;42.706;23.328;2022-11-15T00:54:23;0.60;;;0.60;;
10839;SDS011;5473;42.706;23.328;2022-11-15T00:56:49;0.53;;;0.53;;
10839;SDS011;5473;42.706;23.328;2022-11-15T00:59:16;0.60;;;0.60;;
10839;SDS011;5473;42.706;23.328;2022-11-15T01:01:43;0.50;;;0.50;;
10839;SDS011;5473;42.706;23.328;2022-11-15T01:04:10;0.60;;;0.60;;
10839;SDS011;5473;42.706;23.328;2022-11-15T01:06:36;0.50;;;0.50;;
10839;SDS011;5473;42.706;23.328;2022-11-15T01:09:05;0.50;;;0.50;;
10839;SDS011;5473;42.706;23.328;2022-11-15T01:11:31;0.60;;;0.60;;
10839;SDS011;5473;42.706;23.328;2022-11-15T01:13:59;0.60;;;0.60;;
10839;SDS011;5473;42.706;23.328;2022-11-15T01:16:26;0.67;;;0.67;;
10839;SDS011;5473;42.706;23.328;2022-11-15T01:18:53;0.50;;;0.50;;
10839;SDS011;5473;42.706;23.328;2022-11-15T01:21:20;0.50;;;0.50;;
10839;SDS011;5473;42.706;23.328;2022-11-15T01:23:47;0.57;;;0.57;;
10839;SDS011;5473;42.706;23.328;2022-11-15T01:26:15;0.60;;;0.60;;
10839;SDS011;5473;42.706;23.328;2022-11-15T01:28:42;0.60;;;0.60;;
10839;SDS011;5473;42.706;23.328;2022-11-15T01:31:11;0.60;;;0.60;;
10839;SDS011;5473;42.706;23.328;2022-11-15T01:33:40;0.50;;;0.50;;
10839;SDS011;5473;42.706;23.328;2022-11-15T01:36:08;0.50;;;0.50;;
10839;SDS011;5473;42.706;23.328;2022-11-15T01:38:37;0.50;;;0.50;;
10839;SDS011;5473;42.706;23.328;2022-11-15T01:41:04;0.50;;;0.50;;
10839;SDS011;5473;42.706;23.328;2022-11-15T01:43:32;0.60;;;0.60;;
10839;SDS011;5473;42.706;23.328;2022-11-15T01:46:01;0.50;;;0.50;;
10839;SDS011;5473;42.706;23.328;2022-11-15T01:48:33;0.60;;;0.60;;
10839;SDS011;5473;42.706;23.328;2022-11-15T01:51:01;0.60;;;0.60;;
10839;SDS011;5473;42.706;23.328;2022-11-15T01:53:31;0.60;;;0.60;;
10839;SDS011;5473;42.706;23.328;2022-11-15T01:56:00;0.60;;;0.60;;
10839;SDS011;5473;42.706;23.328;2022-11-15T01:58:28;0.60;;;0.60;;
10839;SDS011;5473;42.706;23.328;2022-11-15T02:00:57;0.57;;;0.57;;
10839;SDS011;5473;42.706;23.328;2022-11-15T02:03:25;0.53;;;0.53;;
10839;SDS011;5473;42.706;23.328;2022-11-15T02:05:57;0.60;;;0.60;;
10839;SDS011;5473;42.706;23.328;2022-11-15T02:08:24;0.60;;;0.60;;
10839;SDS011;5473;42.706;23.328;2022-11-15T02:10:51;0.60;;;0.60;;
10839;SDS011;5473;42.706;23.328;2022-11-15T02:13:18;0.40;;;0.40;;
10839;SDS011;5473;42.706;23.328;2022-11-15T02:15:47;0.70;;;0.70;;
10839;SDS011;5473;42.706;23.328;2022-11-15T02:18:24;0.60;;;0.60;;
10839;SDS011;5473;42.706;23.328;2022-11-15T02:20:58;0.57;;;0.57;;
10839;SDS011;5473;42.706;23.328;2022-11-15T02:23:55;0.60;;;0.60;;
10839;SDS011;5473;42.706;23.328;2022-11-15T02:30:14;0.53;;;0.53;;
10839;SDS011;5473;42.706;23.328;2022-11-15T02:32:45;0.60;;;0.60;;
10839;SDS011;5473;42.706;23.328;2022-11-15T02:35:18;0.60;;;0.60;;
10839;SDS011;5473;42.706;23.328;2022-11-15T02:37:56;0.50;;;0.50;;
10839;SDS011;5473;42.706;23.328;2022-11-15T02:40:27;0.53;;;0.53;;
10839;SDS011;5473;42.706;23.328;2022-11-15T02:43:07;0.50;;;0.50;;
10839;SDS011;5473;42.706;23.328;2022-11-15T02:45:56;0.50;;;0.50;;
10839;SDS011;5473;42.706;23.328;2022-11-15T02:48:28;0.60;;;0.60;;
10839;SDS011;5473;42.706;23.328;2022-11-15T02:50:56;0.50;;;0.50;;
10839;SDS011;5473;42.706;23.328;2022-11-15T02:53:24;0.60;;;0.60;;
10839;SDS011;5473;42.706;23.328;2022-11-15T02:55:52;0.60;;;0.60;;
10839;SDS011;5473;42.706;23.328;2022-11-15T02:58:25;0.60;;;0.60;;
10839;SDS011;5473;42.706;23.328;2022-11-15T03:01:06;0.60;;;0.60;;
10839;SDS011;5473;42.706;23.328;2022-11-15T03:03:42;0.67;;;0.67;;
10839;SDS011;5473;42.706;23.328;2022-11-15T03:06:24;0.57;;;0.57;;
10839;SDS011;5473;42.706;23.328;2022-11-15T03:09:02;0.60;;;0.60;;
10839;SDS011;5473;42.706;23.328;2022-11-15T03:11:32;0.60;;;0.60;;
10839;SDS011;5473;42.706;23.328;2022-11-15T03:14:06;0.53;;;0.53;;
10839;SDS011;5473;42.706;23.328;2022-11-15T03:16:43;0.50;;;0.50;;
10839;SDS011;5473;42.706;23.328;2022-11-15T03:19:16;0.60;;;0.60;;
10839;SDS011;5473;42.706;23.328;2022-11-15T03:21:49;0.60;;;0.60;;
10839;SDS011;5473;42.706;23.328;2022-11-15T03:24:18;0.60;;;0.60;;
10839;SDS011;5473;42.706;23.328;2022-11-15T03:26:50;0.53;;;0.53;;
10839;SDS011;5473;42.706;23.328;2022-11-15T03:29:21;0.50;;;0.50;;
10839;SDS011;5473;42.706;23.328;2022-11-15T03:31:53;0.53;;;0.53;;
10839;SDS011;5473;42.706;23.328;2022-11-15T03:34:26;0.50;;;0.50;;
10839;SDS011;5473;42.706;23.328;2022-11-15T03:36:56;0.50;;;0.50;;
10839;SDS011;5473;42.706;23.328;2022-11-15T03:39:23;0.60;;;0.60;;
10839;SDS011;5473;42.706;23.328;2022-11-15T03:41:52;0.50;;;0.50;;
10839;SDS011;5473;42.706;23.328;2022-11-15T03:44:33;0.60;;;0.60;;
10839;SDS011;5473;42.706;23.328;2022-11-15T03:47:08;0.60;;;0.60;;
10839;SDS011;5473;42.706;23.328;2022-11-15T03:49:40;0.60;;;0.60;;
10839;SDS011;5473;42.706;23.328;2022-11-15T03:52:11;0.60;;;0.60;;
10839;SDS011;5473;42.706;23.328;2022-11-15T03:54:47;0.60;;;0.60;;
10839;SDS011;5473;42.706;23.328;2022-11-15T03:57:15;0.50;;;0.50;;
10839;SDS011;5473;42.706;23.328;2022-11-15T03:59:42;0.60;;;0.60;;
10839;SDS011;5473;42.706;23.328;2022-11-15T04:02:10;0.60;;;0.60;;
10839;SDS011;5473;42.706;23.328;2022-11-15T04:04:37;0.60;;;0.60;;
10839;SDS011;5473;42.706;23.328;2022-11-15T04:07:04;0.60;;;0.60;;
10839;SDS011;5473;42.706;23.328;2022-11-15T04:09:30;0.53;;;0.53;;
10839;SDS011;5473;42.706;23.328;2022-11-15T04:11:57;0.60;;;0.60;;
10839;SDS011;5473;42.706;23.328;2022-11-15T04:14:24;0.50;;;0.50;;
10839;SDS011;5473;42.706;23.328;2022-11-15T04:16:51;0.60;;;0.60;;
10839;SDS011;5473;42.706;23.328;2022-11-15T04:19:19;0.60;;;0.60;;
10839;SDS011;5473;42.706;23.328;2022-11-15T04:22:03;0.40;;;0.40;;
10839;SDS011;5473;42.706;23.328;2022-11-15T04:24:47;0.60;;;0.60;;
10839;SDS011;5473;42.706;23.328;2022-11-15T04:27:14;0.60;;;0.60;;
10839;SDS011;5473;42.706;23.328;2022-11-15T04:29:40;0.60;;;0.60;;
10839;SDS011;5473;42.706;23.328;2022-11-15T04:32:07;0.60;;;0.60;;
10839;SDS011;5473;42.706;23.328;2022-11-15T04:34:35;0.60;;;0.60;;
10839;SDS011;5473;42.706;23.328;2022-11-15T04:37:05;0.53;;;0.53;;
10839;SDS011;5473;42.706;23.328;2022-11-15T04:39:38;0.50;;;0.50;;
10839;SDS011;5473;42.706;23.328;2022-11-15T04:42:05;0.60;;;0.60;;
10839;SDS011;5473;42.706;23.328;2022-11-15T04:44:32;0.50;;;0.50;;
10839;SDS011;5473;42.706;23.328;2022-11-15T04:46:58;0.70;;;0.70;;
10839;SDS011;5473;42.706;23.328;2022-11-15T04:49:25;0.60;;;0.60;;
10839;SDS011;5473;42.706;23.328;2022-11-15T04:51:53;0.50;;;0.50;;
10839;SDS011;5473;42.706;23.328;2022-11-15T04:54:20;0.50;;;0.50;;
10839;SDS011;5473;42.706;23.328;2022-11-15T04:56:47;0.60;;;0.60;;
10839;SDS011;5473;42.706;23.328;2022-11-15T04:59:14;0.50;;;0.50;;
10839;SDS011;5473;42.706;23.328;2022-11-15T05:01:40;0.50;;;0.50;;
10839;SDS011;5473;42.706;23.328;2022-11-15T05:04:07;0.57;;;0.57;;
10839;SDS011;5473;42.706;23.328;2022-11-15T05:06:45;0.60;;;0.60;;
10839;SDS011;5473;42.706;23.328;2022-11-15T05:09:13;0.60;;;0.60;;
10839;SDS011;5473;42.706;23.328;2022-11-15T05:11:41;0.50;;;0.50;;
10839;SDS011;5473;42.706;23.328;2022-11-15T05:14:08;0.50;;;0.50;;
10839;SDS011;5473;42.706;23.328;2022-11-15T05:16:35;0.60;;;0.60;;
10839;SDS011;5473;42.706;23.328;2022-11-15T05:19:02;0.50;;;0.50;;
10839;SDS011;5473;42.706;23.328;2022-11-15T05:21:29;0.60;;;0.60;;
10839;SDS011;5473;42.706;23.328;2022-11-15T05:23:57;0.50;;;0.50;;
10839;SDS011;5473;42.706;23.328;2022-11-15T05:26:25;0.60;;;0.60;;
10839;SDS011;5473;42.706;23.328;2022-11-15T05:28:52;0.60;;;0.60;;
10839;SDS011;5473;42.706;23.328;2022-11-15T05:31:20;0.60;;;0.60;;
10839;SDS011;5473;42.706;23.328;2022-11-15T05:33:48;0.60;;;0.60;;
10839;SDS011;5473;42.706;23.328;2022-11-15T05:36:17;0.50;;;0.50;;
10839;SDS011;5473;42.706;23.328;2022-11-15T05:38:47;0.57;;;0.57;;
10839;SDS011;5473;42.706;23.328;2022-11-15T05:41:15;0.60;;;0.60;;
10839;SDS011;5473;42.706;23.328;2022-11-15T05:43:44;0.60;;;0.60;;
10839;SDS011;5473;42.706;23.328;2022-11-15T05:46:12;0.60;;;0.60;;
10839;SDS011;5473;42.706;23.328;2022-11-15T05:48:40;0.60;;;0.60;;
10839;SDS011;5473;42.706;23.328;2022-11-15T05:51:09;0.50;;;0.50;;
10839;SDS011;5473;42.706;23.328;2022-11-15T05:53:36;0.60;;;0.60;;
10839;SDS011;5473;42.706;23.328;2022-11-15T05:56:03;0.60;;;0.60;;
10839;SDS011;5473;42.706;23.328;2022-11-15T05:58:31;0.50;;;0.50;;
10839;SDS011;5473;42.706;23.328;2022-11-15T06:01:00;0.67;;;0.67;;
10839;SDS011;5473;42.706;23.328;2022-11-15T06:03:27;0.50;;;0.50;;
10839;SDS011;5473;42.706;23.328;2022-11-15T06:05:54;0.60;;;0.60;;
10839;SDS011;5473;42.706;23.328;2022-11-15T06:08:22;0.53;;;0.53;;
10839;SDS011;5473;42.706;23.328;2022-11-15T06:10:49;0.50;;;0.50;;
10839;SDS011;5473;42.706;23.328;2022-11-15T06:13:15;0.60;;;0.60;;
10839;SDS011;5473;42.706;23.328;2022-11-15T06:15:42;0.50;;;0.50;;
10839;SDS011;5473;42.706;23.328;2022-11-15T06:18:12;0.60;;;0.60;;
10839;SDS011;5473;42.706;23.328;2022-11-15T06:20:38;0.50;;;0.50;;
10839;SDS011;5473;42.706;23.328;2022-11-15T06:23:05;0.60;;;0.60;;
10839;SDS011;5473;42.706;23.328;2022-11-15T06:25:32;0.50;;;0.50;;
10839;SDS011;5473;42.706;23.328;2022-11-15T06:27:59;0.47;;;0.47;;
10839;SDS011;5473;42.706;23.328;2022-11-15T06:30:26;0.50;;;0.50;;
10839;SDS011;5473;42.706;23.328;2022-11-15T06:32:58;0.50;;;0.50;;
10839;SDS011;5473;42.706;23.328;2022-11-15T06:35:28;0.50;;;0.50;;
10839;SDS011;5473;42.706;23.328;2022-11-15T06:37:56;0.43;;;0.43;;
10839;SDS011;5473;42.706;23.328;2022-11-15T06:40:27;0.60;;;0.60;;
10839;SDS011;5473;42.706;23.328;2022-11-15T06:42:56;0.50;;;0.50;;
10839;SDS011;5473;42.706;23.328;2022-11-15T06:45:24;0.50;;;0.50;;
10839;SDS011;5473;42.706;23.328;2022-11-15T06:47:51;0.50;;;0.50;;
10839;SDS011;5473;42.706;23.328;2022-11-15T06:50:18;0.40;;;0.40;;
10839;SDS011;5473;42.706;23.328;2022-11-15T06:52:46;0.50;;;0.50;;
10839;SDS011;5473;42.706;23.328;2022-11-15T06:55:13;0.43;;;0.43;;
10839;SDS011;5473;42.706;23.328;2022-11-15T06:57:46;0.60;;;0.60;;
10839;SDS011;5473;42.706;23.328;2022-11-15T07:00:14;0.50;;;0.50;;
10839;SDS011;5473;42.706;23.328;2022-11-15T07:02:42;0.50;;;0.50;;
10839;SDS011;5473;42.706;23.328;2022-11-15T07:05:09;0.47;;;0.47;;
10839;SDS011;5473;42.706;23.328;2022-11-15T07:07:35;0.50;;;0.50;;
10839;SDS011;5473;42.706;23.328;2022-11-15T07:10:04;0.50;;;0.50;;
10839;SDS011;5473;42.706;23.328;2022-11-15T07:12:32;0.53;;;0.53;;
10839;SDS011;5473;42.706;23.328;2022-11-15T07:14:59;0.50;;;0.50;;
10839;SDS011;5473;42.706;23.328;2022-11-15T07:17:26;0.50;;;0.50;;
10839;SDS011;5473;42.706;23.328;2022-11-15T07:19:52;0.50;;;0.50;;
10839;SDS011;5473;42.706;23.328;2022-11-15T07:22:19;0.50;;;0.50;;
10839;SDS011;5473;42.706;23.328;2022-11-15T07:24:46;0.50;;;0.50;;
10839;SDS011;5473;42.706;23.328;2022-11-15T07:27:14;0.40;;;0.40;;
10839;SDS011;5473;42.706;23.328;2022-11-15T07:29:41;0.60;;;0.60;;
10839;SDS011;5473;42.706;23.328;2022-11-15T07:32:08;0.50;;;0.50;;
10839;SDS011;5473;42.706;23.328;2022-11-15T07:34:35;0.50;;;0.50;;
10839;SDS011;5473;42.706;23.328;2022-11-15T07:37:02;0.57;;;0.57;;
10839;SDS011;5473;42.706;23.328;2022-11-15T07:39:29;0.53;;;0.53;;
10839;SDS011;5473;42.706;23.328;2022-11-15T07:41:56;0.60;;;0.60;;
10839;SDS011;5473;42.706;23.328;2022-11-15T07:44:38;0.50;;;0.50;;
10839;SDS011;5473;42.706;23.328;2022-11-15T07:47:05;0.50;;;0.50;;
10839;SDS011;5473;42.706;23.328;2022-11-15T07:49:32;0.50;;;0.50;;
10839;SDS011;5473;42.706;23.328;2022-11-15T07:51:58;0.50;;;0.50;;
10839;SDS011;5473;42.706;23.328;2022-11-15T07:54:25;0.50;;;0.50;;
10839;SDS011;5473;42.706;23.328;2022-11-15T07:56:52;0.50;;;0.50;;
10839;SDS011;5473;42.706;23.328;2022-11-15T07:59:19;0.60;;;0.60;;
10839;SDS011;5473;42.706;23.328;2022-11-15T08:01:47;0.50;;;0.50;;
10839;SDS011;5473;42.706;23.328;2022-11-15T08:04:14;0.50;;;0.50;;
10839;SDS011;5473;42.706;23.328;2022-11-15T08:06:41;0.50;;;0.50;;
10839;SDS011;5473;42.706;23.328;2022-11-15T08:09:08;0.50;;;0.50;;
10839;SDS011;5473;42.706;23.328;2022-11-15T08:11:34;0.50;;;0.50;;
10839;SDS011;5473;42.706;23.328;2022-11-15T08:14:01;0.40;;;0.40;;
10839;SDS011;5473;42.706;23.328;2022-11-15T08:16:28;0.50;;;0.50;;
10839;SDS011;5473;42.706;23.328;2022-11-15T08:18:56;0.57;;;0.57;;
10839;SDS011;5473;42.706;23.328;2022-11-15T08:21:23;0.60;;;0.60;;
10839;SDS011;5473;42.706;23.328;2022-11-15T08:23:50;0.50;;;0.50;;
10839;SDS011;5473;42.706;23.328;2022-11-15T08:26:17;0.60;;;0.60;;
10839;SDS011;5473;42.706;23.328;2022-11-15T08:28:44;0.30;;;0.30;;
10839;SDS011;5473;42.706;23.328;2022-11-15T08:31:13;0.50;;;0.50;;
10839;SDS011;5473;42.706;23.328;2022-11-15T08:33:41;0.60;;;0.60;;
10839;SDS011;5473;42.706;23.328;2022-11-15T08:36:11;0.57;;;0.57;;
10839;SDS011;5473;42.706;23.328;2022-11-15T08:38:40;0.50;;;0.50;;
10839;SDS011;5473;42.706;23.328;2022-11-15T08:41:10;0.50;;;0.50;;
10839;SDS011;5473;42.706;23.328;2022-11-15T08:43:39;0.47;;;0.47;;
10839;SDS011;5473;42.706;23.328;2022-11-15T08:46:07;0.40;;;0.40;;
10839;SDS011;5473;42.706;23.328;2022-11-15T08:48:38;0.50;;;0.50;;
10839;SDS011;5473;42.706;23.328;2022-11-15T08:51:04;0.40;;;0.40;;
10839;SDS011;5473;42.706;23.328;2022-11-15T08:53:33;0.50;;;0.50;;
10839;SDS011;5473;42.706;23.328;2022-11-15T08:56:00;0.50;;;0.50;;
10839;SDS011;5473;42.706;23.328;2022-11-15T08:58:27;0.43;;;0.43;;
10839;SDS011;5473;42.706;23.328;2022-11-15T09:00:54;0.40;;;0.40;;
10839;SDS011;5473;42.706;23.328;2022-11-15T09:03:21;0.40;;;0.40;;
10839;SDS011;5473;42.706;23.328;2022-11-15T09:05:48;0.57;;;0.57;;
10839;SDS011;5473;42.706;23.328;2022-11-15T09:08:21;0.47;;;0.47;;
10839;SDS011;5473;42.706;23.328;2022-11-15T09:10:49;0.60;;;0.60;;
10839;SDS011;5473;42.706;23.328;2022-11-15T09:13:16;0.60;;;0.60;;
10839;SDS011;5473;42.706;23.328;2022-11-15T09:15:42;0.40;;;0.40;;
10839;SDS011;5473;42.706;23.328;2022-11-15T09:18:09;0.50;;;0.50;;
10839;SDS011;5473;42.706;23.328;2022-11-15T09:20:36;0.60;;;0.60;;
10839;SDS011;5473;42.706;23.328;2022-11-15T09:23:03;0.60;;;0.60;;
10839;SDS011;5473;42.706;23.328;2022-11-15T09:25:31;0.50;;;0.50;;
10839;SDS011;5473;42.706;23.328;2022-11-15T09:27:59;0.47;;;0.47;;
10839;SDS011;5473;42.706;23.328;2022-11-15T09:30:26;0.60;;;0.60;;
10839;SDS011;5473;42.706;23.328;2022-11-15T09:32:53;0.50;;;0.50;;
10839;SDS011;5473;42.706;23.328;2022-11-15T09:35:20;0.50;;;0.50;;
10839;SDS011;5473;42.706;23.328;2022-11-15T09:37:48;0.60;;;0.60;;
10839;SDS011;5473;42.706;23.328;2022-11-15T09:40:15;0.40;;;0.40;;
10839;SDS011;5473;42.706;23.328;2022-11-15T09:42:51;0.60;;;0.60;;
10839;SDS011;5473;42.706;23.328;2022-11-15T09:45:30;0.50;;;0.50;;
10839;SDS011;5473;42.706;23.328;2022-11-15T09:48:18;0.40;;;0.40;;
10839;SDS011;5473;42.706;23.328;2022-11-15T09:50:57;0.40;;;0.40;;
10839;SDS011;5473;42.706;23.328;2022-11-15T09:53:29;0.50;;;0.50;;
10839;SDS011;5473;42.706;23.328;2022-11-15T09:56:03;0.50;;;0.50;;
10839;SDS011;5473;42.706;23.328;2022-11-15T09:58:51;0.50;;;0.50;;
10839;SDS011;5473;42.706;23.328;2022-11-15T10:01:40;0.50;;;0.50;;
10839;SDS011;5473;42.706;23.328;2022-11-15T10:04:15;0.40;;;0.40;;
10839;SDS011;5473;42.706;23.328;2022-11-15T10:06:44;0.40;;;0.40;;
10839;SDS011;5473;42.706;23.328;2022-11-15T10:09:17;0.40;;;0.40;;
10839;SDS011;5473;42.706;23.328;2022-11-15T10:11:49;0.40;;;0.40;;
10839;SDS011;5473;42.706;23.328;2022-11-15T10:14:17;0.50;;;0.50;;
10839;SDS011;5473;42.706;23.328;2022-11-15T10:19:47;0.50;;;0.50;;
10839;SDS011;5473;42.706;23.328;2022-11-15T10:22:26;0.50;;;0.50;;
10839;SDS011;5473;42.706;23.328;2022-11-15T10:25:09;0.40;;;0.40;;
10839;SDS011;5473;42.706;23.328;2022-11-15T10:27:42;0.50;;;0.50;;
10839;SDS011;5473;42.706;23.328;2022-11-15T10:30:14;0.40;;;0.40;;
10839;SDS011;5473;42.706;23.328;2022-11-15T10:32:44;0.40;;;0.40;;
10839;SDS011;5473;42.706;23.328;2022-11-15T10:35:16;0.30;;;0.30;;
10839;SDS011;5473;42.706;23.328;2022-11-15T10:37:44;0.30;;;0.30;;
10839;SDS011;5473;42.706;23.328;2022-11-15T10:40:14;0.20;;;0.20;;
10839;SDS011;5473;42.706;23.328;2022-11-15T10:42:43;0.20;;;0.20;;
10839;SDS011;5473;42.706;23.328;2022-11-15T10:45:22;0.20;;;0.20;;
10839;SDS011;5473;42.706;23.328;2022-11-15T10:47:51;0.20;;;0.20;;
10839;SDS011;5473;42.706;23.328;2022-11-15T10:50:28;0.13;;;0.13;;
10839;SDS011;5473;42.706;23.328;2022-11-15T10:52:56;0.20;;;0.20;;
10839;SDS011;5473;42.706;23.328;2022-11-15T10:55:26;0.20;;;0.20;;
10839;SDS011;5473;42.706;23.328;2022-11-15T10:58:03;0.20;;;0.20;;
10839;SDS011;5473;42.706;23.328;2022-11-15T11:00:33;0.20;;;0.20;;
10839;SDS011;5473;42.706;23.328;2022-11-15T11:03:03;0.20;;;0.20;;
10839;SDS011;5473;42.706;23.328;2022-11-15T11:05:32;0.20;;;0.20;;
10839;SDS011;5473;42.706;23.328;2022-11-15T11:08:02;0.20;;;0.20;;
10839;SDS011;5473;42.706;23.328;2022-11-15T11:10:31;0.13;;;0.13;;
10839;SDS011;5473;42.706;23.328;2022-11-15T11:13:12;0.20;;;0.20;;
10839;SDS011;5473;42.706;23.328;2022-11-15T11:15:40;0.20;;;0.20;;
10839;SDS011;5473;42.706;23.328;2022-11-15T11:18:15;0.20;;;0.20;;
10839;SDS011;5473;42.706;23.328;2022-11-15T11:20:50;0.10;;;0.10;;
10839;SDS011;5473;42.706;23.328;2022-11-15T11:23:26;0.20;;;0.20;;
10839;SDS011;5473;42.706;23.328;2022-11-15T11:26:12;0.20;;;0.20;;
10839;SDS011;5473;42.706;23.328;2022-11-15T11:28:53;0.10;;;0.10;;
10839;SDS011;5473;42.706;23.328;2022-11-15T11:31:28;0.20;;;0.20;;
10839;SDS011;5473;42.706;23.328;2022-11-15T11:34:02;0.20;;;0.20;;
10839;SDS011;5473;42.706;23.328;2022-11-15T11:36:36;0.20;;;0.20;;
10839;SDS011;5473;42.706;23.328;2022-11-15T11:39:16;0.20;;;0.20;;
10839;SDS011;5473;42.706;23.328;2022-11-15T11:41:55;0.20;;;0.20;;
10839;SDS011;5473;42.706;23.328;2022-11-15T11:44:37;0.20;;;0.20;;
10839;SDS011;5473;42.706;23.328;2022-11-15T11:47:17;0.20;;;0.20;;
10839;SDS011;5473;42.706;23.328;2022-11-15T11:49:49;0.20;;;0.20;;
10839;SDS011;5473;42.706;23.328;2022-11-15T11:52:20;0.20;;;0.20;;
10839;SDS011;5473;42.706;23.328;2022-11-15T11:54:57;0.20;;;0.20;;
10839;SDS011;5473;42.706;23.328;2022-11-15T11:57:30;0.20;;;0.20;;
10839;SDS011;5473;42.706;23.328;2022-11-15T12:00:10;0.20;;;0.20;;
10839;SDS011;5473;42.706;23.328;2022-11-15T12:02:43;0.20;;;0.20;;
10839;SDS011;5473;42.706;23.328;2022-11-15T12:05:16;0.20;;;0.20;;
10839;SDS011;5473;42.706;23.328;2022-11-15T12:07:49;0.20;;;0.20;;
10839;SDS011;5473;42.706;23.328;2022-11-15T12:10:20;0.20;;;0.20;;
10839;SDS011;5473;42.706;23.328;2022-11-15T12:12:52;0.20;;;0.20;;
10839;SDS011;5473;42.706;23.328;2022-11-15T12:15:23;0.20;;;0.20;;
10839;SDS011;5473;42.706;23.328;2022-11-15T12:17:54;0.20;;;0.20;;
10839;SDS011;5473;42.706;23.328;2022-11-15T12:20:23;0.20;;;0.20;;
10839;SDS011;5473;42.706;23.328;2022-11-15T12:22:53;0.30;;;0.30;;
10839;SDS011;5473;42.706;23.328;2022-11-15T12:25:25;0.40;;;0.40;;
10839;SDS011;5473;42.706;23.328;2022-11-15T12:27:57;0.40;;;0.40;;
10839;SDS011;5473;42.706;23.328;2022-11-15T12:30:36;0.30;;;0.30;;
10839;SDS011;5473;42.706;23.328;2022-11-15T12:35:58;0.50;;;0.50;;
10839;SDS011;5473;42.706;23.328;2022-11-15T12:41:23;0.40;;;0.40;;
10839;SDS011;5473;42.706;23.328;2022-11-15T12:43:50;0.40;;;0.40;;
10839;SDS011;5473;42.706;23.328;2022-11-15T12:46:21;0.50;;;0.50;;
10839;SDS011;5473;42.706;23.328;2022-11-15T12:49:09;0.40;;;0.40;;
10839;SDS011;5473;42.706;23.328;2022-11-15T12:52:08;0.50;;;0.50;;
10839;SDS011;5473;42.706;23.328;2022-11-15T12:54:55;0.50;;;0.50;;
10839;SDS011;5473;42.706;23.328;2022-11-15T12:57:37;0.50;;;0.50;;
10839;SDS011;5473;42.706;23.328;2022-11-15T13:03:21;0.47;;;0.47;;
10839;SDS011;5473;42.706;23.328;2022-11-15T13:08:58;0.50;;;0.50;;
10839;SDS011;5473;42.706;23.328;2022-11-15T13:17:27;0.50;;;0.50;;
10839;SDS011;5473;42.706;23.328;2022-11-15T13:22:45;0.43;;;0.43;;
10839;SDS011;5473;42.706;23.328;2022-11-15T13:25:19;0.50;;;0.50;;
10839;SDS011;5473;42.706;23.328;2022-11-15T13:28:10;0.40;;;0.40;;
10839;SDS011;5473;42.706;23.328;2022-11-15T13:30:48;0.43;;;0.43;;
10839;SDS011;5473;42.706;23.328;2022-11-15T13:33:19;0.50;;;0.50;;
10839;SDS011;5473;42.706;23.328;2022-11-15T13:35:48;0.57;;;0.57;;
10839;SDS011;5473;42.706;23.328;2022-11-15T13:38:19;0.50;;;0.50;;
10839;SDS011;5473;42.706;23.328;2022-11-15T13:40:54;0.50;;;0.50;;
10839;SDS011;5473;42.706;23.328;2022-11-15T13:43:31;0.47;;;0.47;;
10839;SDS011;5473;42.706;23.328;2022-11-15T13:46:07;0.40;;;0.40;;
10839;SDS011;5473;42.706;23.328;2022-11-15T13:48:38;0.40;;;0.40;;
10839;SDS011;5473;42.706;23.328;2022-11-15T13:51:06;0.40;;;0.40;;
10839;SDS011;5473;42.706;23.328;2022-11-15T13:53:37;0.50;;;0.50;;
10839;SDS011;5473;42.706;23.328;2022-11-15T13:56:12;0.43;;;0.43;;
10839;SDS011;5473;42.706;23.328;2022-11-15T13:58:41;0.50;;;0.50;;
10839;SDS011;5473;42.706;23.328;2022-11-15T14:01:11;0.50;;;0.50;;
10839;SDS011;5473;42.706;23.328;2022-11-15T14:03:46;0.50;;;0.50;;
10839;SDS011;5473;42.706;23.328;2022-11-15T14:06:20;0.40;;;0.40;;
10839;SDS011;5473;42.706;23.328;2022-11-15T14:09:00;0.50;;;0.50;;
10839;SDS011;5473;42.706;23.328;2022-11-15T14:11:31;0.50;;;0.50;;
10839;SDS011;5473;42.706;23.328;2022-11-15T14:14:04;0.50;;;0.50;;
10839;SDS011;5473;42.706;23.328;2022-11-15T14:16:39;0.50;;;0.50;;
10839;SDS011;5473;42.706;23.328;2022-11-15T14:19:09;0.50;;;0.50;;
10839;SDS011;5473;42.706;23.328;2022-11-15T14:21:37;0.43;;;0.43;;
10839;SDS011;5473;42.706;23.328;2022-11-15T14:24:24;0.60;;;0.60;;
10839;SDS011;5473;42.706;23.328;2022-11-15T14:27:01;0.40;;;0.40;;
10839;SDS011;5473;42.706;23.328;2022-11-15T14:29:42;0.40;;;0.40;;
10839;SDS011;5473;42.706;23.328;2022-11-15T14:32:11;0.40;;;0.40;;
10839;SDS011;5473;42.706;23.328;2022-11-15T14:34:40;0.50;;;0.50;;
10839;SDS011;5473;42.706;23.328;2022-11-15T14:37:19;0.47;;;0.47;;
10839;SDS011;5473;42.706;23.328;2022-11-15T14:39:48;0.30;;;0.30;;
10839;SDS011;5473;42.706;23.328;2022-11-15T14:42:17;0.50;;;0.50;;
10839;SDS011;5473;42.706;23.328;2022-11-15T14:44:44;0.50;;;0.50;;
10839;SDS011;5473;42.706;23.328;2022-11-15T14:47:11;0.30;;;0.30;;
10839;SDS011;5473;42.706;23.328;2022-11-15T14:49:38;0.60;;;0.60;;
10839;SDS011;5473;42.706;23.328;2022-11-15T14:52:09;0.50;;;0.50;;
10839;SDS011;5473;42.706;23.328;2022-11-15T14:54:52;0.50;;;0.50;;
10839;SDS011;5473;42.706;23.328;2022-11-15T14:57:21;0.50;;;0.50;;
10839;SDS011;5473;42.706;23.328;2022-11-15T14:59:48;0.50;;;0.50;;
10839;SDS011;5473;42.706;23.328;2022-11-15T15:02:16;0.60;;;0.60;;
10839;SDS011;5473;42.706;23.328;2022-11-15T15:04:45;0.40;;;0.40;;
10839;SDS011;5473;42.706;23.328;2022-11-15T15:07:12;0.50;;;0.50;;
10839;SDS011;5473;42.706;23.328;2022-11-15T15:09:39;0.50;;;0.50;;
10839;SDS011;5473;42.706;23.328;2022-11-15T15:12:11;0.60;;;0.60;;
10839;SDS011;5473;42.706;23.328;2022-11-15T15:14:43;0.50;;;0.50;;
10839;SDS011;5473;42.706;23.328;2022-11-15T15:17:10;0.50;;;0.50;;
10839;SDS011;5473;42.706;23.328;2022-11-15T15:19:37;0.60;;;0.60;;
10839;SDS011;5473;42.706;23.328;2022-11-15T15:22:04;0.50;;;0.50;;
10839;SDS011;5473;42.706;23.328;2022-11-15T15:24:31;0.43;;;0.43;;
10839;SDS011;5473;42.706;23.328;2022-11-15T15:26:58;0.50;;;0.50;;
10839;SDS011;5473;42.706;23.328;2022-11-15T15:29:25;0.40;;;0.40;;
10839;SDS011;5473;42.706;23.328;2022-11-15T15:31:53;0.50;;;0.50;;
10839;SDS011;5473;42.706;23.328;2022-11-15T15:34:20;0.50;;;0.50;;